createdAt,value
2018-07-12T00:00:06.577Z,319.00
2018-07-12T00:01:07.351Z,319.00
2018-07-12T00:02:08.146Z,319.00
2018-07-12T00:03:08.900Z,320.00
2018-07-12T00:04:09.672Z,319.00
2018-07-12T00:05:10.475Z,319.00
2018-07-12T00:06:11.248Z,319.00
2018-07-12T00:07:12.021Z,320.00
2018-07-12T00:08:12.793Z,319.00
2018-07-12T00:09:13.571Z,320.00
2018-07-12T00:10:14.369Z,319.00
2018-07-12T00:11:15.142Z,319.00
2018-07-12T00:12:15.950Z,319.00
2018-07-12T00:13:15.684Z,320.00
2018-07-12T00:14:17.456Z,319.00
2018-07-12T00:15:18.255Z,319.00
2018-07-12T00:16:19.025Z,320.00
2018-07-12T00:17:19.796Z,320.00
2018-07-12T00:18:20.569Z,319.00
2018-07-12T00:19:21.344Z,319.00
2018-07-12T00:20:22.141Z,319.00
2018-07-12T00:21:22.918Z,319.00
2018-07-12T00:22:23.685Z,319.00
2018-07-12T00:23:24.456Z,320.00
2018-07-12T00:24:25.230Z,319.00
2018-07-12T00:25:26.032Z,319.00
2018-07-12T00:26:26.804Z,319.00
2018-07-12T00:27:27.576Z,319.00
2018-07-12T00:28:28.354Z,319.00
2018-07-12T00:29:29.125Z,319.00
2018-07-12T00:30:30.298Z,320.00
2018-07-12T00:31:30.729Z,319.00
2018-07-12T00:44:04.475Z,319.00
2018-07-12T00:45:05.245Z,319.00
2018-07-12T00:46:06.013Z,319.00
2018-07-12T00:47:06.806Z,319.00
2018-07-12T00:48:07.579Z,319.00
2018-07-12T00:49:08.348Z,319.00
2018-07-12T00:50:09.118Z,320.00
2018-07-12T00:51:09.895Z,319.00
2018-07-12T00:52:10.694Z,319.00
2018-07-12T00:53:11.467Z,320.00
2018-07-12T00:54:12.242Z,319.00
2018-07-12T00:55:13.010Z,319.00
2018-07-12T00:56:13.781Z,319.00
2018-07-12T00:57:14.577Z,319.00
2018-07-12T00:58:15.349Z,319.00
2018-07-12T00:59:16.122Z,319.00
2018-07-12T01:00:16.897Z,319.00
2018-07-12T01:01:17.666Z,319.00
2018-07-12T01:02:18.460Z,320.00
2018-07-12T01:03:19.234Z,320.00
2018-07-12T01:04:20.016Z,319.00
2018-07-12T01:05:20.777Z,319.00
2018-07-12T01:06:21.553Z,320.00
2018-07-12T01:07:22.346Z,320.00
2018-07-12T01:08:23.118Z,319.00
2018-07-12T01:09:23.893Z,319.00
2018-07-12T01:10:24.660Z,319.00
2018-07-12T01:11:25.434Z,319.00
2018-07-12T01:12:26.228Z,319.00
2018-07-12T01:13:26.998Z,319.00
2018-07-12T01:14:27.780Z,319.00
2018-07-12T01:15:28.547Z,319.00
2018-07-12T01:16:29.331Z,320.00
2018-07-12T01:17:30.118Z,319.00
2018-07-12T01:18:30.892Z,319.00
2018-07-12T01:19:31.662Z,319.00
2018-07-12T01:20:32.432Z,319.00
2018-07-12T01:21:33.206Z,319.00
2018-07-12T01:22:34.006Z,319.00
2018-07-12T01:23:34.776Z,319.00
2018-07-12T01:24:35.555Z,319.00
2018-07-12T01:25:36.322Z,319.00
2018-07-12T01:26:37.094Z,319.00
2018-07-12T01:27:37.888Z,319.00
2018-07-12T01:28:38.662Z,319.00
2018-07-12T01:29:39.446Z,319.00
2018-07-12T01:30:40.209Z,319.00
2018-07-12T01:31:40.980Z,319.00
2018-07-12T01:32:41.777Z,319.00
2018-07-12T01:33:42.548Z,319.00
2018-07-12T01:34:43.324Z,320.00
2018-07-12T01:35:44.099Z,319.00
2018-07-12T01:36:44.871Z,319.00
2018-07-12T01:37:45.670Z,319.00
2018-07-12T01:38:46.443Z,319.00
2018-07-12T01:39:47.218Z,319.00
2018-07-12T01:40:47.989Z,319.00
2018-07-12T01:41:48.763Z,319.00
2018-07-12T01:42:49.557Z,319.00
2018-07-12T01:43:50.334Z,320.00
2018-07-12T01:44:51.106Z,319.00
2018-07-12T01:45:51.887Z,319.00
2018-07-12T01:46:52.656Z,320.00
2018-07-12T01:47:53.456Z,319.00
2018-07-12T01:48:54.225Z,319.00
2018-07-12T01:49:54.995Z,319.00
2018-07-12T01:50:55.769Z,319.00
2018-07-12T01:51:56.546Z,319.00
2018-07-12T01:52:57.344Z,319.00
2018-07-12T01:53:58.129Z,319.00
2018-07-12T01:54:58.889Z,319.00
2018-07-12T01:55:59.660Z,319.00
2018-07-12T01:57:00.431Z,319.00
2018-07-12T01:58:01.231Z,320.00
2018-07-12T01:59:01.000Z,319.00
2018-07-12T02:00:02.775Z,319.00
2018-07-12T02:01:03.548Z,319.00
2018-07-12T02:02:04.318Z,319.00
2018-07-12T02:03:05.122Z,319.00
2018-07-12T02:04:05.897Z,319.00
2018-07-12T02:05:06.672Z,319.00
2018-07-12T02:06:07.446Z,319.00
2018-07-12T02:07:08.213Z,320.00
2018-07-12T02:08:09.010Z,319.00
2018-07-12T02:09:09.781Z,319.00
2018-07-12T02:10:10.555Z,319.00
2018-07-12T02:11:11.324Z,319.00
2018-07-12T02:12:12.105Z,319.00
2018-07-12T02:13:12.893Z,319.00
2018-07-12T02:14:13.671Z,319.00
2018-07-12T02:15:14.439Z,319.00
2018-07-12T02:16:15.223Z,319.00
2018-07-12T02:17:15.986Z,319.00
2018-07-12T02:18:16.781Z,319.00
2018-07-12T02:19:17.554Z,319.00
2018-07-12T02:20:18.326Z,319.00
2018-07-12T02:21:19.099Z,319.00
2018-07-12T02:22:19.874Z,319.00
2018-07-12T02:23:20.675Z,319.00
2018-07-12T02:24:21.447Z,319.00
2018-07-12T02:25:22.222Z,320.00
2018-07-12T02:26:22.993Z,319.00
2018-07-12T02:27:23.769Z,319.00
2018-07-12T02:28:24.564Z,319.00
2018-07-12T02:29:25.335Z,319.00
2018-07-12T02:30:26.110Z,320.00
2018-07-12T02:31:27.266Z,319.00
2018-07-12T02:32:27.449Z,319.00
2018-07-12T02:44:45.745Z,319.00
2018-07-12T02:45:46.517Z,320.00
2018-07-12T02:46:47.288Z,320.00
2018-07-12T02:47:48.064Z,319.00
2018-07-12T02:48:48.829Z,320.00
2018-07-12T02:49:49.625Z,320.00
2018-07-12T02:50:50.397Z,320.00
2018-07-12T02:51:51.173Z,320.00
2018-07-12T02:52:51.940Z,320.00
2018-07-12T02:53:52.715Z,320.00
2018-07-12T02:54:53.516Z,320.00
2018-07-12T02:55:54.284Z,320.00
2018-07-12T02:56:55.057Z,320.00
2018-07-12T02:57:55.828Z,320.00
2018-07-12T02:58:56.601Z,320.00
2018-07-12T02:59:57.398Z,320.00
2018-07-12T03:00:58.171Z,320.00
2018-07-12T03:01:58.937Z,320.00
2018-07-12T03:02:59.710Z,320.00
2018-07-12T03:04:00.484Z,321.00
2018-07-12T03:05:01.277Z,320.00
2018-07-12T03:06:02.049Z,320.00
2018-07-12T03:07:02.820Z,320.00
2018-07-12T03:08:03.609Z,320.00
2018-07-12T03:09:04.364Z,320.00
2018-07-12T03:10:05.162Z,320.00
2018-07-12T03:11:05.941Z,320.00
2018-07-12T03:12:06.707Z,320.00
2018-07-12T03:13:07.480Z,320.00
2018-07-12T03:14:08.251Z,320.00
2018-07-12T03:15:09.052Z,320.00
2018-07-12T03:16:09.821Z,320.00
2018-07-12T03:17:10.591Z,320.00
2018-07-12T03:18:11.365Z,320.00
2018-07-12T03:19:12.139Z,320.00
2018-07-12T03:20:12.933Z,320.00
2018-07-12T03:21:13.706Z,320.00
2018-07-12T03:22:14.483Z,320.00
2018-07-12T03:23:15.253Z,320.00
2018-07-12T03:24:16.024Z,321.00
2018-07-12T03:25:16.828Z,320.00
2018-07-12T03:26:17.597Z,320.00
2018-07-12T03:27:18.367Z,320.00
2018-07-12T03:28:19.141Z,320.00
2018-07-12T03:29:19.912Z,320.00
2018-07-12T03:30:20.711Z,320.00
2018-07-12T03:31:21.483Z,320.00
2018-07-12T03:32:22.255Z,321.00
2018-07-12T03:33:23.029Z,321.00
2018-07-12T03:34:23.801Z,320.00
2018-07-12T03:35:24.605Z,320.00
2018-07-12T03:36:25.376Z,320.00
2018-07-12T03:37:26.149Z,320.00
2018-07-12T03:38:26.920Z,320.00
2018-07-12T03:39:27.698Z,320.00
2018-07-12T03:40:28.499Z,321.00
2018-07-12T03:41:29.269Z,320.00
2018-07-12T03:42:30.036Z,321.00
2018-07-12T03:43:30.808Z,321.00
2018-07-12T03:44:31.582Z,320.00
2018-07-12T03:45:32.381Z,321.00
2018-07-12T03:46:33.154Z,321.00
2018-07-12T03:47:33.927Z,322.00
2018-07-12T03:48:34.700Z,320.00
2018-07-12T03:49:35.472Z,321.00
2018-07-12T03:50:36.271Z,322.00
2018-07-12T03:51:37.043Z,321.00
2018-07-12T03:52:37.813Z,321.00
2018-07-12T03:53:38.591Z,321.00
2018-07-12T03:54:39.367Z,321.00
2018-07-12T03:55:40.162Z,321.00
2018-07-12T03:56:39.936Z,321.00
2018-07-12T03:57:41.709Z,321.00
2018-07-12T03:58:42.485Z,321.00
2018-07-12T03:59:43.254Z,321.00
2018-07-12T04:00:44.051Z,321.00
2018-07-12T04:01:44.828Z,321.00
2018-07-12T04:02:45.601Z,321.00
2018-07-12T04:03:46.376Z,321.00
2018-07-12T04:04:47.144Z,321.00
2018-07-12T04:05:47.952Z,322.00
2018-07-12T04:06:48.719Z,321.00
2018-07-12T04:07:49.495Z,321.00
2018-07-12T04:08:50.268Z,321.00
2018-07-12T04:09:51.040Z,321.00
2018-07-12T04:10:51.905Z,321.00
2018-07-12T04:11:51.616Z,321.00
2018-07-12T04:12:53.387Z,321.00
2018-07-12T04:13:54.160Z,321.00
2018-07-12T04:14:54.933Z,322.00
2018-07-12T04:15:55.733Z,321.00
2018-07-12T04:16:56.506Z,321.00
2018-07-12T04:17:57.281Z,321.00
2018-07-12T04:18:58.056Z,321.00
2018-07-12T04:19:58.825Z,322.00
2018-07-12T04:20:59.624Z,321.00
2018-07-12T04:22:00.398Z,321.00
2018-07-12T04:23:01.170Z,321.00
2018-07-12T04:24:01.944Z,322.00
2018-07-12T04:25:02.718Z,321.00
2018-07-12T04:26:03.521Z,321.00
2018-07-12T04:27:04.294Z,321.00
2018-07-12T04:28:05.062Z,321.00
2018-07-12T04:29:05.834Z,321.00
2018-07-12T04:30:06.609Z,321.00
2018-07-12T04:31:07.455Z,321.00
2018-07-12T04:32:07.181Z,321.00
2018-07-12T04:33:08.952Z,321.00
2018-07-12T04:34:10.108Z,321.00
2018-07-12T04:35:10.291Z,321.00
2018-07-12T04:36:09.513Z,322.00
2018-07-12T04:46:36.461Z,321.00
2018-07-12T04:47:37.257Z,321.00
2018-07-12T04:48:38.031Z,321.00
2018-07-12T04:49:38.798Z,322.00
2018-07-12T04:50:39.571Z,324.00
2018-07-12T04:51:40.341Z,324.00
2018-07-12T04:52:41.140Z,324.00
2018-07-12T04:53:41.913Z,322.00
2018-07-12T04:54:42.687Z,322.00
2018-07-12T04:55:43.457Z,322.00
2018-07-12T04:56:44.236Z,322.00
2018-07-12T04:57:45.024Z,322.00
2018-07-12T04:58:45.795Z,322.00
2018-07-12T04:59:46.569Z,322.00
2018-07-12T05:00:47.339Z,324.00
2018-07-12T05:01:48.110Z,324.00
2018-07-12T05:02:48.909Z,325.00
2018-07-12T05:03:49.678Z,324.00
2018-07-12T05:04:50.461Z,324.00
2018-07-12T05:05:51.227Z,325.00
2018-07-12T05:06:51.997Z,324.00
2018-07-12T05:07:52.795Z,324.00
2018-07-12T05:08:53.568Z,324.00
2018-07-12T05:09:54.340Z,324.00
2018-07-12T05:10:55.117Z,324.00
2018-07-12T05:11:55.885Z,325.00
2018-07-12T05:12:56.679Z,324.00
2018-07-12T05:13:57.452Z,322.00
2018-07-12T05:14:58.223Z,321.00
2018-07-12T05:15:58.995Z,321.00
2018-07-12T05:16:59.766Z,322.00
2018-07-12T05:18:00.570Z,321.00
2018-07-12T05:19:01.340Z,321.00
2018-07-12T05:20:02.112Z,321.00
2018-07-12T05:21:02.884Z,321.00
2018-07-12T05:22:03.662Z,321.00
2018-07-12T05:23:04.455Z,321.00
2018-07-12T05:24:05.227Z,322.00
2018-07-12T05:25:06.003Z,321.00
2018-07-12T05:26:06.776Z,324.00
2018-07-12T05:27:07.547Z,322.00
2018-07-12T05:28:08.342Z,321.00
2018-07-12T05:29:09.119Z,322.00
2018-07-12T05:30:09.890Z,322.00
2018-07-12T05:31:09.663Z,324.00
2018-07-12T05:32:11.436Z,324.00
2018-07-12T05:33:12.231Z,324.00
2018-07-12T05:34:13.004Z,325.00
2018-07-12T05:35:13.778Z,326.00
2018-07-12T05:36:14.552Z,325.00
2018-07-12T05:37:15.330Z,326.00
2018-07-12T05:38:16.130Z,326.00
2018-07-12T05:39:17.002Z,326.00
2018-07-12T05:40:16.671Z,326.00
2018-07-12T05:41:18.446Z,325.00
2018-07-12T05:42:19.216Z,325.00
2018-07-12T05:43:20.027Z,325.00
2018-07-12T05:44:20.798Z,326.00
2018-07-12T05:45:21.573Z,324.00
2018-07-12T05:46:22.346Z,324.00
2018-07-12T05:47:23.121Z,324.00
2018-07-12T05:48:23.932Z,324.00
2018-07-12T05:49:24.707Z,326.00
2018-07-12T05:50:25.479Z,324.00
2018-07-12T05:51:26.249Z,324.00
2018-07-12T05:52:27.030Z,324.00
2018-07-12T05:53:27.836Z,324.00
2018-07-12T05:54:28.614Z,324.00
2018-07-12T05:55:29.383Z,324.00
2018-07-12T05:56:30.165Z,324.00
2018-07-12T05:57:30.975Z,325.00
2018-07-12T05:58:30.728Z,324.00
2018-07-12T05:59:32.503Z,324.00
2018-07-12T06:00:33.275Z,325.00
2018-07-12T06:01:34.053Z,325.00
2018-07-12T06:02:34.820Z,325.00
2018-07-12T06:03:35.617Z,325.00
2018-07-12T06:04:36.393Z,325.00
2018-07-12T06:05:37.167Z,325.00
2018-07-12T06:06:37.940Z,324.00
2018-07-12T06:07:38.714Z,325.00
2018-07-12T06:08:39.511Z,324.00
2018-07-12T06:09:40.284Z,324.00
2018-07-12T06:10:41.057Z,324.00
2018-07-12T06:11:41.828Z,324.00
2018-07-12T06:12:42.604Z,324.00
2018-07-12T06:13:43.402Z,324.00
2018-07-12T06:14:44.177Z,324.00
2018-07-12T06:15:44.946Z,325.00
2018-07-12T06:16:45.724Z,326.00
2018-07-12T06:17:46.494Z,324.00
2018-07-12T06:18:47.310Z,325.00
2018-07-12T06:19:48.065Z,325.00
2018-07-12T06:20:48.852Z,325.00
2018-07-12T06:21:49.622Z,325.00
2018-07-12T06:22:50.395Z,325.00
2018-07-12T06:23:51.191Z,325.00
2018-07-12T06:24:51.967Z,324.00
2018-07-12T06:25:52.747Z,325.00
2018-07-12T06:26:53.517Z,324.00
2018-07-12T06:27:54.285Z,326.00
2018-07-12T06:28:55.083Z,325.00
2018-07-12T06:29:55.908Z,326.00
2018-07-12T06:30:55.631Z,327.00
2018-07-12T06:31:57.403Z,328.00
2018-07-12T06:32:58.176Z,328.00
2018-07-12T06:33:59.001Z,328.00
2018-07-12T06:34:59.755Z,328.00
2018-07-12T06:36:00.528Z,327.00
2018-07-12T06:37:01.684Z,327.00
2018-07-12T06:38:01.858Z,326.00
2018-07-12T06:40:58.032Z,327.00
2018-07-12T06:41:58.803Z,327.00
2018-07-12T06:42:59.575Z,327.00
2018-07-12T06:44:00.347Z,328.00
2018-07-12T06:45:01.144Z,328.00
2018-07-12T06:46:01.914Z,329.00
2018-07-12T06:47:02.688Z,329.00
2018-07-12T06:48:03.461Z,329.00
2018-07-12T06:49:04.232Z,329.00
2018-07-12T06:50:05.030Z,329.00
2018-07-12T06:51:05.801Z,329.00
2018-07-12T06:52:06.575Z,329.00
2018-07-12T06:53:07.346Z,329.00
2018-07-12T06:54:08.120Z,329.00
2018-07-12T06:55:08.914Z,329.00
2018-07-12T06:56:09.686Z,330.00
2018-07-12T06:57:10.464Z,330.00
2018-07-12T06:58:11.232Z,329.00
2018-07-12T06:59:12.009Z,329.00
2018-07-12T07:00:12.800Z,330.00
2018-07-12T07:01:13.580Z,330.00
2018-07-12T07:02:14.345Z,330.00
2018-07-12T07:03:15.120Z,330.00
2018-07-12T07:04:15.899Z,330.00
2018-07-12T07:05:16.738Z,331.00
2018-07-12T07:06:16.470Z,333.00
2018-07-12T07:07:18.240Z,338.00
2018-07-12T07:08:19.012Z,339.00
2018-07-12T07:09:19.789Z,337.00
2018-07-12T07:10:20.585Z,337.00
2018-07-12T07:11:21.360Z,333.00
2018-07-12T07:12:22.132Z,333.00
2018-07-12T07:13:22.909Z,334.00
2018-07-12T07:14:23.676Z,332.00
2018-07-12T07:15:24.475Z,331.00
2018-07-12T07:16:25.249Z,330.00
2018-07-12T07:17:26.020Z,333.00
2018-07-12T07:18:26.794Z,333.00
2018-07-12T07:19:27.573Z,334.00
2018-07-12T07:20:28.370Z,331.00
2018-07-12T07:21:29.140Z,330.00
2018-07-12T07:22:29.913Z,332.00
2018-07-12T07:23:30.684Z,340.00
2018-07-12T07:24:31.458Z,334.00
2018-07-12T07:25:32.283Z,334.00
2018-07-12T07:26:32.029Z,336.00
2018-07-12T07:27:33.817Z,348.00
2018-07-12T07:28:34.576Z,336.00
2018-07-12T07:29:35.350Z,334.00
2018-07-12T07:30:36.145Z,333.00
2018-07-12T07:31:36.922Z,333.00
2018-07-12T07:32:37.694Z,332.00
2018-07-12T07:33:38.502Z,331.00
2018-07-12T07:34:38.243Z,331.00
2018-07-12T07:35:40.072Z,329.00
2018-07-12T07:36:39.809Z,330.00
2018-07-12T07:37:41.582Z,330.00
2018-07-12T07:38:42.353Z,330.00
2018-07-12T07:39:43.130Z,329.00
2018-07-12T07:40:43.930Z,329.00
2018-07-12T07:41:44.700Z,330.00
2018-07-12T07:42:45.476Z,330.00
2018-07-12T07:43:46.251Z,330.00
2018-07-12T07:44:47.023Z,330.00
2018-07-12T07:45:47.820Z,330.00
2018-07-12T07:46:48.604Z,331.00
2018-07-12T07:47:49.368Z,332.00
2018-07-12T07:48:50.135Z,332.00
2018-07-12T07:49:50.906Z,332.00
2018-07-12T07:50:51.705Z,333.00
2018-07-12T07:51:52.486Z,333.00
2018-07-12T07:52:53.255Z,331.00
2018-07-12T07:53:54.028Z,331.00
2018-07-12T07:54:54.892Z,331.00
2018-07-12T07:55:54.972Z,331.00
2018-07-12T07:56:54.693Z,331.00
2018-07-12T07:57:56.466Z,332.00
2018-07-12T07:58:57.240Z,333.00
2018-07-12T07:59:58.020Z,334.00
2018-07-12T08:00:58.810Z,334.00
2018-07-12T08:01:59.583Z,333.00
2018-07-12T08:03:00.353Z,332.00
2018-07-12T08:04:01.132Z,332.00
2018-07-12T08:05:01.899Z,330.00
2018-07-12T08:06:02.695Z,331.00
2018-07-12T08:07:03.466Z,332.00
2018-07-12T08:08:04.236Z,331.00
2018-07-12T08:09:05.010Z,332.00
2018-07-12T08:10:05.870Z,332.00
2018-07-12T08:11:05.633Z,331.00
2018-07-12T08:12:07.411Z,330.00
2018-07-12T08:13:08.258Z,329.00
2018-07-12T08:14:07.970Z,328.00
2018-07-12T08:15:09.742Z,328.00
2018-07-12T08:16:10.697Z,330.00
2018-07-12T08:17:10.376Z,330.00
2018-07-12T08:18:12.146Z,329.00
2018-07-12T08:19:12.916Z,330.00
2018-07-12T08:20:13.692Z,327.00
2018-07-12T08:21:14.485Z,327.00
2018-07-12T08:22:15.259Z,327.00
2018-07-12T08:23:16.038Z,326.00
2018-07-12T08:24:16.805Z,327.00
2018-07-12T08:25:17.581Z,326.00
2018-07-12T08:26:18.381Z,326.00
2018-07-12T08:27:19.151Z,326.00
2018-07-12T08:28:19.922Z,326.00
2018-07-12T08:29:20.719Z,326.00
2018-07-12T08:30:21.468Z,326.00
2018-07-12T08:31:22.323Z,326.00
2018-07-12T08:32:22.037Z,326.00
2018-07-12T08:33:23.872Z,326.00
2018-07-12T08:34:23.586Z,326.00
2018-07-12T08:35:25.361Z,326.00
2018-07-12T08:36:26.156Z,326.00
2018-07-12T08:37:27.313Z,326.00
2018-07-12T08:38:27.509Z,327.00
2018-07-12T08:49:04.519Z,328.00
2018-07-12T08:50:05.291Z,329.00
2018-07-12T08:51:06.063Z,329.00
2018-07-12T08:52:06.833Z,328.00
2018-07-12T08:53:07.637Z,328.00
2018-07-12T08:54:07.399Z,327.00
2018-07-12T08:55:09.344Z,326.00
2018-07-12T08:56:09.039Z,326.00
2018-07-12T08:57:10.818Z,326.00
2018-07-12T08:58:11.582Z,327.00
2018-07-12T08:59:12.400Z,327.00
2018-07-12T09:00:13.173Z,328.00
2018-07-12T09:01:13.951Z,329.00
2018-07-12T09:02:14.719Z,330.00
2018-07-12T09:03:15.494Z,331.00
2018-07-12T09:04:16.293Z,331.00
2018-07-12T09:05:17.064Z,329.00
2018-07-12T09:06:17.836Z,328.00
2018-07-12T09:07:18.608Z,327.00
2018-07-12T09:08:19.387Z,326.00
2018-07-12T09:09:20.184Z,326.00
2018-07-12T09:10:20.951Z,325.00
2018-07-12T09:11:21.725Z,325.00
2018-07-12T09:12:22.508Z,325.00
2018-07-12T09:13:23.271Z,325.00
2018-07-12T09:14:24.085Z,326.00
2018-07-12T09:15:24.850Z,326.00
2018-07-12T09:16:25.624Z,327.00
2018-07-12T09:17:26.405Z,328.00
2018-07-12T09:18:27.180Z,328.00
2018-07-12T09:19:27.976Z,327.00
2018-07-12T09:20:28.748Z,328.00
2018-07-12T09:21:29.520Z,329.00
2018-07-12T09:22:30.296Z,332.00
2018-07-12T09:23:31.068Z,339.00
2018-07-12T09:24:31.861Z,343.00
2018-07-12T09:25:32.727Z,381.00
2018-07-12T09:26:32.404Z,382.00
2018-07-12T09:27:34.181Z,381.00
2018-07-12T09:28:34.952Z,351.00
2018-07-12T09:29:35.755Z,380.00
2018-07-12T09:30:36.527Z,368.00
2018-07-12T09:31:37.304Z,372.00
2018-07-12T09:32:38.085Z,345.00
2018-07-12T09:33:38.855Z,340.00
2018-07-12T09:34:39.654Z,362.00
2018-07-12T09:35:40.426Z,340.00
2018-07-12T09:36:41.200Z,337.00
2018-07-12T09:37:41.979Z,333.00
2018-07-12T09:38:42.746Z,331.00
2018-07-12T09:39:43.580Z,331.00
2018-07-12T09:40:43.312Z,330.00
2018-07-12T09:41:45.087Z,328.00
2018-07-12T09:42:45.866Z,329.00
2018-07-12T09:43:46.635Z,330.00
2018-07-12T09:44:47.439Z,336.00
2018-07-12T09:45:48.211Z,337.00
2018-07-12T09:46:48.986Z,336.00
2018-07-12T09:47:49.759Z,337.00
2018-07-12T09:48:50.534Z,340.00
2018-07-12T09:49:51.327Z,384.00
2018-07-12T09:50:52.107Z,353.00
2018-07-12T09:51:52.875Z,353.00
2018-07-12T09:52:53.651Z,392.00
2018-07-12T09:53:54.422Z,363.00
2018-07-12T09:54:55.219Z,360.00
2018-07-12T09:55:56.010Z,342.00
2018-07-12T09:56:55.766Z,338.00
2018-07-12T09:57:57.541Z,336.00
2018-07-12T09:58:58.315Z,337.00
2018-07-12T09:59:59.113Z,356.00
2018-07-12T10:00:58.884Z,338.00
2018-07-12T10:02:00.661Z,334.00
2018-07-12T10:03:01.433Z,331.00
2018-07-12T10:04:02.203Z,329.00
2018-07-12T10:05:03.003Z,328.00
2018-07-12T10:06:03.776Z,328.00
2018-07-12T10:07:04.552Z,327.00
2018-07-12T10:08:05.321Z,327.00
2018-07-12T10:09:06.096Z,327.00
2018-07-12T10:10:06.896Z,328.00
2018-07-12T10:11:07.675Z,328.00
2018-07-12T10:12:08.449Z,328.00
2018-07-12T10:13:09.222Z,328.00
2018-07-12T10:14:09.997Z,328.00
2018-07-12T10:15:10.797Z,328.00
2018-07-12T10:16:11.573Z,329.00
2018-07-12T10:17:12.357Z,330.00
2018-07-12T10:18:13.124Z,330.00
2018-07-12T10:19:13.902Z,331.00
2018-07-12T10:20:14.708Z,333.00
2018-07-12T10:21:15.478Z,334.00
2018-07-12T10:22:16.251Z,336.00
2018-07-12T10:23:17.027Z,337.00
2018-07-12T10:24:17.804Z,337.00
2018-07-12T10:25:18.607Z,336.00
2018-07-12T10:26:19.379Z,337.00
2018-07-12T10:27:20.156Z,337.00
2018-07-12T10:28:20.929Z,339.00
2018-07-12T10:29:21.709Z,339.00
2018-07-12T10:30:22.507Z,339.00
2018-07-12T10:31:23.282Z,339.00
2018-07-12T10:32:24.057Z,337.00
2018-07-12T10:33:24.831Z,333.00
2018-07-12T10:34:25.603Z,329.00
2018-07-12T10:35:26.410Z,329.00
2018-07-12T10:36:27.179Z,329.00
2018-07-12T10:37:27.949Z,329.00
2018-07-12T10:38:28.721Z,330.00
2018-07-12T10:39:29.497Z,330.00
2018-07-12T10:40:30.290Z,334.00
2018-07-12T10:41:31.454Z,332.00
2018-07-12T10:56:09.350Z,334.00
2018-07-12T10:57:10.143Z,334.00
2018-07-12T10:58:10.916Z,333.00
2018-07-12T10:59:11.688Z,334.00
2018-07-12T11:00:12.457Z,333.00
2018-07-12T11:01:13.230Z,332.00
2018-07-12T11:02:14.026Z,333.00
2018-07-12T11:03:14.798Z,332.00
2018-07-12T11:04:15.573Z,332.00
2018-07-12T11:05:16.385Z,334.00
2018-07-12T11:06:17.130Z,334.00
2018-07-12T11:07:17.934Z,340.00
2018-07-12T11:08:18.699Z,334.00
2018-07-12T11:09:19.473Z,334.00
2018-07-12T11:10:20.260Z,333.00
2018-07-12T11:11:21.017Z,332.00
2018-07-12T11:12:21.819Z,332.00
2018-07-12T11:13:22.587Z,332.00
2018-07-12T11:14:23.357Z,332.00
2018-07-12T11:15:24.133Z,333.00
2018-07-12T11:16:24.905Z,334.00
2018-07-12T11:17:25.703Z,337.00
2018-07-12T11:18:26.479Z,339.00
2018-07-12T11:19:27.249Z,343.00
2018-07-12T11:20:28.025Z,345.00
2018-07-12T11:21:28.798Z,345.00
2018-07-12T11:22:29.597Z,364.00
2018-07-12T11:23:30.367Z,382.00
2018-07-12T11:24:31.144Z,381.00
2018-07-12T11:25:31.916Z,374.00
2018-07-12T11:26:32.688Z,355.00
2018-07-12T11:27:33.482Z,389.00
2018-07-12T11:28:34.252Z,391.00
2018-07-12T11:29:35.024Z,352.00
2018-07-12T11:30:35.795Z,352.00
2018-07-12T11:31:36.596Z,376.00
2018-07-12T11:32:37.363Z,393.00
2018-07-12T11:33:38.136Z,362.00
2018-07-12T11:34:38.907Z,370.00
2018-07-12T11:35:39.683Z,349.00
2018-07-12T11:36:40.456Z,356.00
2018-07-12T11:37:41.253Z,379.00
2018-07-12T11:38:42.022Z,369.00
2018-07-12T11:39:42.794Z,364.00
2018-07-12T11:40:43.574Z,343.00
2018-07-12T11:41:44.341Z,342.00
2018-07-12T11:42:45.138Z,344.00
2018-07-12T11:43:45.907Z,363.00
2018-07-12T11:44:46.748Z,344.00
2018-07-12T11:45:46.454Z,345.00
2018-07-12T11:46:48.225Z,341.00
2018-07-12T11:47:49.023Z,337.00
2018-07-12T11:48:49.798Z,337.00
2018-07-12T11:49:50.571Z,336.00
2018-07-12T11:50:51.412Z,336.00
2018-07-12T11:51:51.122Z,336.00
2018-07-12T11:52:52.942Z,337.00
2018-07-12T11:53:52.696Z,337.00
2018-07-12T11:54:54.468Z,337.00
2018-07-12T11:55:55.241Z,336.00
2018-07-12T11:56:56.013Z,336.00
2018-07-12T11:57:56.811Z,337.00
2018-07-12T11:58:57.585Z,341.00
2018-07-12T11:59:58.352Z,356.00
2018-07-12T12:00:59.128Z,378.00
2018-07-12T12:01:59.931Z,352.00
2018-07-12T12:02:59.701Z,349.00
2018-07-12T12:04:00.472Z,342.00
2018-07-12T12:05:02.245Z,340.00
2018-07-12T12:06:03.018Z,341.00
2018-07-12T12:07:03.788Z,349.00
2018-07-12T12:08:04.583Z,380.00
2018-07-12T12:09:05.358Z,348.00
2018-07-12T12:10:06.131Z,342.00
2018-07-12T12:11:06.904Z,343.00
2018-07-12T12:12:07.674Z,341.00
2018-07-12T12:13:08.477Z,340.00
2018-07-12T12:14:09.248Z,337.00
2018-07-12T12:15:10.021Z,338.00
2018-07-12T12:16:10.793Z,341.00
2018-07-12T12:17:11.570Z,340.00
2018-07-12T12:18:12.369Z,339.00
2018-07-12T12:19:13.145Z,338.00
2018-07-12T12:20:13.914Z,337.00
2018-07-12T12:21:14.685Z,337.00
2018-07-12T12:22:15.456Z,337.00
2018-07-12T12:23:16.257Z,336.00
2018-07-12T12:24:17.027Z,336.00
2018-07-12T12:25:17.802Z,336.00
2018-07-12T12:26:18.581Z,336.00
2018-07-12T12:27:19.352Z,338.00
2018-07-12T12:28:20.143Z,372.00
2018-07-12T12:29:20.921Z,344.00
2018-07-12T12:30:21.691Z,369.00
2018-07-12T12:31:22.465Z,349.00
2018-07-12T12:32:23.237Z,346.00
2018-07-12T12:33:24.081Z,375.00
2018-07-12T12:34:23.814Z,377.00
2018-07-12T12:35:25.586Z,361.00
2018-07-12T12:36:26.358Z,372.00
2018-07-12T12:37:27.129Z,349.00
2018-07-12T12:38:27.926Z,350.00
2018-07-12T12:39:28.699Z,346.00
2018-07-12T12:40:29.473Z,376.00
2018-07-12T12:41:30.241Z,373.00
2018-07-12T12:42:31.018Z,356.00
2018-07-12T12:43:31.812Z,350.00
2018-07-12T12:44:32.582Z,349.00
2018-07-12T12:45:33.355Z,348.00
2018-07-12T12:46:34.127Z,342.00
2018-07-12T12:47:34.902Z,344.00
2018-07-12T12:48:36.079Z,339.00
2018-07-12T13:01:19.583Z,330.00
2018-07-12T13:02:21.355Z,330.00
2018-07-12T13:03:22.128Z,330.00
2018-07-12T13:04:22.901Z,330.00
2018-07-12T13:05:23.669Z,331.00
2018-07-12T13:06:24.465Z,333.00
2018-07-12T13:07:25.235Z,336.00
2018-07-12T13:08:26.008Z,351.00
2018-07-12T13:09:26.789Z,342.00
2018-07-12T13:10:27.552Z,339.00
2018-07-12T13:11:28.353Z,339.00
2018-07-12T13:12:29.121Z,343.00
2018-07-12T13:13:29.894Z,341.00
2018-07-12T13:14:30.678Z,341.00
2018-07-12T13:15:30.440Z,360.00
2018-07-12T13:16:32.241Z,355.00
2018-07-12T13:17:33.008Z,345.00
2018-07-12T13:18:33.784Z,358.00
2018-07-12T13:19:34.555Z,357.00
2018-07-12T13:20:35.324Z,351.00
2018-07-12T13:21:36.122Z,356.00
2018-07-12T13:22:36.897Z,350.00
2018-07-12T13:23:37.664Z,344.00
2018-07-12T13:24:38.436Z,356.00
2018-07-12T13:25:39.340Z,355.00
2018-07-12T13:26:39.005Z,352.00
2018-07-12T13:27:40.833Z,339.00
2018-07-12T13:28:40.549Z,339.00
2018-07-12T13:29:42.319Z,336.00
2018-07-12T13:30:43.092Z,336.00
2018-07-12T13:31:43.925Z,334.00
2018-07-12T13:32:43.665Z,333.00
2018-07-12T13:33:45.443Z,332.00
2018-07-12T13:34:46.217Z,331.00
2018-07-12T13:35:46.995Z,330.00
2018-07-12T13:36:47.792Z,330.00
2018-07-12T13:37:48.564Z,330.00
2018-07-12T13:38:49.334Z,329.00
2018-07-12T13:39:50.107Z,329.00
2018-07-12T13:40:50.882Z,329.00
2018-07-12T13:41:51.677Z,329.00
2018-07-12T13:42:52.450Z,329.00
2018-07-12T13:43:53.224Z,329.00
2018-07-12T13:44:53.993Z,329.00
2018-07-12T13:45:54.765Z,329.00
2018-07-12T13:46:55.568Z,329.00